createdAt,value
2023-05-16T00:00:48.929Z,14.70
2023-05-16T00:03:16.021Z,14.70
2023-05-16T00:05:42.996Z,14.70
2023-05-16T00:08:09.879Z,14.70
2023-05-16T00:10:37.597Z,14.70
2023-05-16T00:13:04.787Z,14.60
2023-05-16T00:15:31.688Z,14.70
2023-05-16T00:18:03.252Z,14.70
2023-05-16T00:20:30.496Z,14.70
2023-05-16T00:23:01.363Z,14.70
2023-05-16T00:25:28.999Z,14.70
2023-05-16T00:27:55.921Z,14.70
2023-05-16T00:30:22.944Z,14.70
2023-05-16T00:32:49.966Z,14.70
2023-05-16T00:35:16.915Z,14.80
2023-05-16T00:37:43.785Z,14.80
2023-05-16T00:40:11.183Z,14.80
2023-05-16T00:42:41.639Z,14.70
2023-05-16T00:45:09.305Z,14.70
2023-05-16T00:47:41.377Z,14.70
2023-05-16T00:50:08.781Z,14.70
2023-05-16T00:52:36.226Z,14.70
2023-05-16T00:55:04.041Z,14.70
2023-05-16T00:57:33.235Z,14.70
2023-05-16T01:00:00.209Z,14.70
2023-05-16T01:02:29.445Z,14.70
2023-05-16T01:04:59.349Z,14.70
2023-05-16T01:07:31.729Z,14.70
2023-05-16T01:09:58.840Z,14.70
2023-05-16T01:12:33.244Z,14.70
2023-05-16T01:15:14.905Z,14.70
2023-05-16T01:18:07.083Z,14.70
2023-05-16T01:20:38.347Z,14.70
2023-05-16T01:23:10.107Z,14.70
2023-05-16T01:25:40.200Z,14.60
2023-05-16T01:28:08.180Z,14.60
2023-05-16T01:30:37.658Z,14.60
2023-05-16T01:33:05.094Z,14.60
2023-05-16T01:35:32.233Z,14.60
2023-05-16T01:38:26.139Z,14.60
2023-05-16T01:41:14.883Z,14.60
2023-05-16T01:43:48.662Z,14.60
2023-05-16T01:46:21.436Z,14.60
2023-05-16T01:49:01.534Z,14.60
2023-05-16T01:51:33.429Z,14.60
2023-05-16T01:54:07.673Z,14.60
2023-05-16T01:56:35.986Z,14.60
2023-05-16T01:59:03.182Z,14.60
2023-05-16T02:01:31.541Z,14.60
2023-05-16T02:04:01.585Z,14.60
2023-05-16T02:06:28.558Z,14.50
2023-05-16T02:08:55.472Z,14.50
2023-05-16T02:11:23.387Z,14.50
2023-05-16T02:13:50.236Z,14.50
2023-05-16T02:16:17.131Z,14.50
2023-05-16T02:18:45.244Z,14.40
2023-05-16T02:21:14.875Z,14.40
2023-05-16T02:23:44.331Z,14.40
2023-05-16T02:26:14.182Z,14.40
2023-05-16T02:28:44.027Z,14.40
2023-05-16T02:31:14.827Z,14.30
2023-05-16T02:33:41.826Z,14.30
2023-05-16T02:36:09.054Z,14.20
2023-05-16T02:38:35.947Z,14.20
2023-05-16T02:41:02.793Z,14.20
2023-05-16T02:43:29.630Z,14.20
2023-05-16T02:45:56.538Z,14.10
2023-05-16T02:48:23.470Z,14.10
2023-05-16T02:50:50.823Z,14.00
2023-05-16T02:53:17.698Z,14.00
2023-05-16T02:55:44.578Z,14.00
2023-05-16T02:58:11.420Z,14.00
2023-05-16T03:00:40.858Z,14.00
2023-05-16T03:03:07.891Z,14.00
2023-05-16T03:05:34.781Z,14.00
2023-05-16T03:08:01.724Z,14.00
2023-05-16T03:10:28.605Z,13.90
2023-05-16T03:12:55.504Z,13.90
2023-05-16T03:15:22.361Z,13.80
2023-05-16T03:17:49.394Z,13.90
2023-05-16T03:20:16.283Z,13.80
2023-05-16T03:22:45.262Z,13.80
2023-05-16T03:25:12.180Z,13.80
2023-05-16T03:27:41.473Z,13.80
2023-05-16T03:30:09.418Z,13.70
2023-05-16T03:32:41.437Z,13.70
2023-05-16T03:35:08.709Z,13.70
2023-05-16T03:37:35.582Z,13.70
2023-05-16T03:40:05.097Z,13.70
2023-05-16T03:42:32.387Z,13.70
2023-05-16T03:44:59.248Z,13.70
2023-05-16T03:47:26.192Z,13.70
2023-05-16T03:49:53.362Z,13.70
2023-05-16T03:52:21.436Z,13.70
2023-05-16T03:54:51.865Z,13.70
2023-05-16T03:57:21.784Z,13.70
2023-05-16T03:59:48.854Z,13.80
2023-05-16T04:02:18.093Z,13.80
2023-05-16T04:04:45.964Z,13.80
2023-05-16T04:07:15.217Z,13.90
2023-05-16T04:09:45.221Z,13.80
2023-05-16T04:12:14.884Z,13.80
2023-05-16T04:14:41.712Z,13.90
2023-05-16T04:17:12.597Z,13.90
2023-05-16T04:19:39.507Z,13.90
2023-05-16T04:22:06.491Z,13.90
2023-05-16T04:24:36.684Z,13.90
2023-05-16T04:27:04.972Z,13.90
2023-05-16T04:29:33.538Z,13.90
2023-05-16T04:32:00.446Z,13.90
2023-05-16T04:34:28.129Z,14.00
2023-05-16T04:36:55.579Z,14.10
2023-05-16T04:39:22.982Z,14.10
2023-05-16T04:41:49.851Z,14.10
2023-05-16T04:44:16.711Z,14.10
2023-05-16T04:46:43.626Z,14.20
2023-05-16T04:49:11.443Z,14.20
2023-05-16T04:51:38.340Z,14.30
2023-05-16T04:54:05.343Z,14.30
2023-05-16T04:56:32.201Z,14.30
2023-05-16T04:58:59.094Z,14.40
2023-05-16T05:01:26.056Z,14.40
2023-05-16T05:03:52.983Z,14.40
2023-05-16T05:06:19.861Z,14.40
2023-05-16T05:08:46.714Z,14.40
2023-05-16T05:11:13.786Z,14.40
2023-05-16T05:13:40.832Z,14.50
2023-05-16T05:16:07.680Z,14.40
2023-05-16T05:18:34.672Z,14.50
2023-05-16T05:21:01.984Z,14.60
2023-05-16T05:23:28.860Z,14.60
2023-05-16T05:25:55.739Z,14.60
2023-05-16T05:28:22.619Z,14.60
2023-05-16T05:30:49.558Z,14.60
2023-05-16T05:33:19.182Z,14.60
2023-05-16T05:35:46.133Z,14.60
2023-05-16T05:38:12.973Z,14.60
2023-05-16T05:40:39.813Z,14.60
2023-05-16T05:43:06.670Z,14.70
2023-05-16T05:45:33.626Z,14.80
2023-05-16T05:48:00.546Z,14.80
2023-05-16T05:50:27.491Z,14.90
2023-05-16T05:52:55.515Z,14.90
2023-05-16T05:55:22.365Z,14.90
2023-05-16T05:57:49.212Z,14.80
2023-05-16T06:00:16.278Z,14.90
2023-05-16T06:02:43.374Z,14.90
2023-05-16T06:05:10.684Z,14.90
2023-05-16T06:07:37.580Z,14.90
2023-05-16T06:10:05.610Z,14.90
2023-05-16T06:12:32.471Z,14.90
2023-05-16T06:14:59.587Z,14.90
2023-05-16T06:17:26.681Z,14.90
2023-05-16T06:19:53.613Z,14.90
2023-05-16T06:22:20.491Z,14.90
2023-05-16T06:24:47.402Z,15.00
2023-05-16T06:27:14.467Z,15.00
2023-05-16T06:29:41.509Z,15.00
2023-05-16T06:32:09.354Z,15.00
2023-05-16T06:34:37.647Z,15.00
2023-05-16T06:37:04.624Z,15.00
2023-05-16T06:39:31.487Z,14.90
2023-05-16T06:41:58.378Z,15.00
2023-05-16T06:44:25.327Z,14.90
2023-05-16T06:46:52.306Z,15.00
2023-05-16T06:49:19.280Z,15.00
2023-05-16T06:51:46.256Z,15.00
2023-05-16T06:54:13.302Z,14.90
2023-05-16T06:56:40.327Z,14.80
2023-05-16T06:59:07.232Z,14.90
2023-05-16T07:01:34.189Z,14.90
2023-05-16T07:04:01.299Z,14.80
2023-05-16T07:06:28.462Z,14.80
2023-05-16T07:08:55.444Z,14.90
2023-05-16T07:11:22.376Z,14.90
2023-05-16T07:13:49.300Z,14.80
2023-05-16T07:16:16.484Z,14.80
2023-05-16T07:18:44.012Z,14.80
2023-05-16T07:21:11.633Z,14.80
2023-05-16T07:23:38.532Z,14.90
2023-05-16T07:26:05.570Z,14.80
2023-05-16T07:28:32.569Z,14.80
2023-05-16T07:30:59.478Z,14.90
2023-05-16T07:33:27.482Z,14.90
2023-05-16T07:36:04.045Z,14.90
2023-05-16T07:38:35.233Z,14.90
2023-05-16T07:41:02.123Z,14.90
2023-05-16T07:43:30.299Z,14.80
2023-05-16T07:45:57.358Z,14.90
2023-05-16T07:48:24.544Z,14.80
2023-05-16T07:50:52.408Z,14.90
2023-05-16T07:53:21.733Z,14.90
2023-05-16T07:55:49.522Z,14.90
2023-05-16T07:58:16.601Z,14.90
2023-05-16T08:00:43.576Z,14.90
2023-05-16T08:03:10.697Z,14.80
2023-05-16T08:05:37.828Z,14.90
2023-05-16T08:08:04.953Z,14.90
2023-05-16T08:10:31.965Z,14.90
2023-05-16T08:12:58.936Z,14.90
2023-05-16T08:15:28.543Z,14.90
2023-05-16T08:17:58.901Z,14.90
2023-05-16T08:20:26.621Z,14.90
2023-05-16T08:22:54.505Z,15.00
2023-05-16T08:25:21.709Z,15.00
2023-05-16T08:27:50.100Z,14.90
2023-05-16T08:30:17.261Z,14.90
2023-05-16T08:32:44.336Z,14.80
2023-05-16T08:35:11.566Z,14.80
2023-05-16T08:37:39.117Z,14.90
2023-05-16T08:40:09.470Z,14.80
2023-05-16T08:42:37.616Z,14.90
2023-05-16T08:45:05.933Z,14.80
2023-05-16T08:47:34.270Z,14.80
2023-05-16T08:50:04.162Z,14.80
2023-05-16T08:52:33.435Z,14.90
2023-05-16T08:55:11.446Z,14.90
2023-05-16T08:57:39.755Z,14.90
2023-05-16T09:00:12.442Z,15.00
2023-05-16T09:02:44.950Z,15.00
2023-05-16T09:05:13.964Z,15.00
2023-05-16T09:07:44.545Z,15.10
2023-05-16T09:10:12.433Z,15.20
2023-05-16T09:12:41.003Z,15.10
2023-05-16T09:15:10.819Z,15.10
2023-05-16T09:17:46.834Z,15.10
2023-05-16T09:20:23.080Z,15.20
2023-05-16T09:22:58.726Z,15.10
2023-05-16T09:25:31.119Z,15.20
2023-05-16T09:28:01.723Z,15.30
2023-05-16T09:30:34.768Z,15.40
2023-05-16T09:33:02.572Z,15.50
2023-05-16T09:37:59.512Z,15.50
2023-05-16T09:40:26.382Z,15.50
2023-05-16T09:43:08.023Z,15.50
2023-05-16T09:45:36.416Z,15.40
2023-05-16T09:48:08.716Z,15.40
2023-05-16T09:50:37.312Z,15.30
2023-05-16T09:53:05.149Z,15.30
2023-05-16T09:55:32.801Z,15.30
2023-05-16T09:57:59.836Z,15.30
2023-05-16T10:00:34.227Z,15.30
2023-05-16T10:03:05.152Z,15.30
2023-05-16T10:05:33.801Z,15.30
2023-05-16T10:08:03.680Z,15.30
2023-05-16T10:10:31.704Z,15.30
2023-05-16T10:13:01.697Z,15.20
2023-05-16T10:15:30.330Z,15.10
2023-05-16T10:18:00.664Z,15.00
2023-05-16T10:20:28.263Z,15.00
2023-05-16T10:22:56.919Z,15.00
2023-05-16T10:25:34.724Z,14.90
2023-05-16T10:28:04.225Z,15.00
2023-05-16T10:30:34.310Z,15.00
2023-05-16T10:33:04.654Z,15.00
2023-05-16T10:35:33.091Z,15.00
2023-05-16T10:38:01.469Z,15.00
2023-05-16T10:40:30.606Z,15.00
2023-05-16T10:42:58.145Z,15.00
2023-05-16T10:45:25.388Z,15.10
2023-05-16T10:47:56.176Z,15.10
2023-05-16T10:50:45.714Z,15.10
2023-05-16T10:53:30.651Z,15.10
2023-05-16T10:56:00.915Z,15.10
2023-05-16T10:58:35.252Z,15.10
2023-05-16T11:01:24.117Z,15.20
2023-05-16T11:04:03.140Z,15.20
2023-05-16T11:06:30.014Z,15.20
2023-05-16T11:09:06.753Z,15.20
2023-05-16T11:11:51.675Z,15.20
2023-05-16T11:14:32.681Z,15.20
2023-05-16T11:16:59.907Z,15.30
2023-05-16T11:19:32.749Z,15.30
2023-05-16T11:22:19.627Z,15.30
2023-05-16T11:24:51.549Z,15.40
2023-05-16T11:27:45.268Z,15.40
2023-05-16T11:30:22.072Z,15.40
2023-05-16T11:32:50.900Z,15.50
2023-05-16T11:35:18.598Z,15.50
2023-05-16T11:37:47.135Z,15.50
2023-05-16T11:40:14.944Z,15.40
2023-05-16T11:42:46.033Z,15.50
2023-05-16T11:45:19.885Z,15.50
2023-05-16T11:47:48.336Z,15.50
2023-05-16T11:50:23.543Z,15.50
2023-05-16T11:52:54.087Z,15.50
2023-05-16T11:55:39.585Z,15.60
2023-05-16T11:58:08.958Z,15.60
2023-05-16T12:00:36.139Z,15.70
2023-05-16T12:03:05.921Z,15.70
2023-05-16T12:05:35.074Z,15.80
2023-05-16T12:08:05.029Z,15.80
2023-05-16T12:10:34.776Z,15.80
2023-05-16T12:13:03.549Z,15.90
2023-05-16T12:15:31.057Z,15.90
2023-05-16T12:17:58.668Z,15.90
2023-05-16T12:20:26.266Z,15.90
2023-05-16T12:22:53.501Z,15.90
2023-05-16T12:25:24.404Z,15.90
2023-05-16T12:27:56.127Z,16.00
2023-05-16T12:30:27.846Z,16.00
2023-05-16T12:33:12.880Z,16.00
2023-05-16T12:35:41.827Z,16.10
2023-05-16T12:38:10.807Z,16.10
2023-05-16T12:40:39.686Z,16.10
2023-05-16T12:43:19.319Z,16.20
2023-05-16T12:45:53.387Z,16.20
2023-05-16T12:48:21.179Z,16.20
2023-05-16T12:50:48.912Z,16.30
2023-05-16T12:53:17.987Z,16.30
2023-05-16T12:55:45.341Z,16.20
2023-05-16T12:58:12.695Z,16.30
2023-05-16T13:00:40.220Z,16.30
2023-05-16T13:03:08.054Z,16.40
2023-05-16T13:05:36.447Z,16.40
2023-05-16T13:08:04.115Z,16.30
2023-05-16T13:10:31.228Z,16.30
2023-05-16T13:13:01.156Z,16.30
2023-05-16T13:15:28.598Z,16.30
2023-05-16T13:17:56.002Z,16.40
2023-05-16T13:20:23.062Z,16.40
2023-05-16T13:22:49.997Z,16.30
2023-05-16T13:25:17.097Z,16.40
2023-05-16T13:27:44.127Z,16.40
2023-05-16T13:30:11.821Z,16.40
2023-05-16T13:32:38.862Z,16.40
2023-05-16T13:35:06.229Z,16.40
2023-05-16T13:37:33.302Z,16.40
2023-05-16T13:40:00.312Z,16.50
2023-05-16T13:42:27.521Z,16.60
2023-05-16T13:44:54.471Z,16.60
2023-05-16T13:47:21.503Z,16.60
2023-05-16T13:49:48.638Z,16.70
2023-05-16T13:52:15.623Z,16.70
2023-05-16T13:54:42.611Z,16.80
2023-05-16T13:57:09.557Z,16.80
2023-05-16T14:00:05.663Z,16.70
2023-05-16T14:02:26.159Z,16.70
2023-05-16T14:04:53.727Z,16.60
2023-05-16T14:07:20.697Z,16.60
2023-05-16T14:09:47.619Z,16.60
2023-05-16T14:12:14.553Z,16.60
2023-05-16T14:14:41.477Z,16.50
2023-05-16T14:17:08.464Z,16.60
2023-05-16T14:19:35.812Z,16.60
2023-05-16T14:22:03.385Z,16.60
2023-05-16T14:24:32.155Z,16.60
2023-05-16T14:26:59.127Z,16.60
2023-05-16T14:29:26.299Z,16.50
2023-05-16T14:31:53.480Z,16.50
2023-05-16T14:34:22.482Z,16.30
2023-05-16T14:36:50.113Z,16.20
2023-05-16T14:39:17.684Z,16.10
2023-05-16T14:41:44.673Z,16.10
2023-05-16T14:44:11.666Z,16.00
2023-05-16T14:46:38.639Z,16.00
2023-05-16T14:49:05.578Z,16.00
2023-05-16T14:51:32.726Z,16.00
2023-05-16T14:53:59.709Z,16.00
2023-05-16T14:56:28.168Z,16.00
2023-05-16T14:58:55.252Z,16.00
2023-05-16T15:01:22.694Z,16.00
2023-05-16T15:03:55.214Z,16.00
2023-05-16T15:06:24.093Z,16.00
2023-05-16T15:08:51.595Z,16.00
2023-05-16T15:11:18.549Z,16.10
2023-05-16T15:13:46.159Z,16.10
2023-05-16T15:16:13.161Z,16.10
2023-05-16T15:18:40.605Z,16.10
2023-05-16T15:21:08.096Z,16.10
2023-05-16T15:23:35.009Z,16.10
2023-05-16T15:26:02.272Z,16.10
2023-05-16T15:28:29.209Z,16.10
2023-05-16T15:30:56.084Z,16.10
2023-05-16T15:33:23.033Z,16.10
2023-05-16T15:35:50.012Z,16.20
2023-05-16T15:38:16.965Z,16.20
2023-05-16T15:40:43.905Z,16.20
2023-05-16T15:43:10.840Z,16.20
2023-05-16T15:45:40.364Z,16.20
2023-05-16T15:48:07.855Z,16.20
2023-05-16T15:50:34.964Z,16.20
2023-05-16T15:53:01.988Z,16.20
2023-05-16T15:55:29.321Z,16.20
2023-05-16T15:57:58.576Z,16.10
2023-05-16T16:00:26.256Z,16.10
2023-05-16T16:02:53.718Z,16.10
2023-05-16T16:05:20.729Z,16.10
2023-05-16T16:07:47.636Z,16.10
2023-05-16T16:10:14.615Z,16.10
2023-05-16T16:12:41.846Z,16.10
2023-05-16T16:15:10.609Z,16.10
2023-05-16T16:17:37.630Z,16.10
2023-05-16T16:20:05.029Z,16.10
2023-05-16T16:22:31.995Z,16.10
2023-05-16T16:24:58.959Z,16.10
2023-05-16T16:27:26.037Z,16.10
2023-05-16T16:29:52.943Z,16.10
2023-05-16T16:32:19.847Z,16.20
2023-05-16T16:34:46.769Z,16.20
2023-05-16T16:37:13.804Z,16.20
2023-05-16T16:39:40.720Z,16.20
2023-05-16T16:42:07.780Z,16.20
2023-05-16T16:44:34.670Z,16.20
2023-05-16T16:47:01.738Z,16.20
2023-05-16T16:49:29.586Z,16.20
2023-05-16T16:51:56.759Z,16.20
2023-05-16T16:54:24.129Z,16.20
2023-05-16T16:56:52.581Z,16.20
2023-05-16T16:59:19.797Z,16.20
2023-05-16T17:01:48.166Z,16.20
2023-05-16T17:04:15.178Z,16.20
2023-05-16T17:06:42.330Z,16.20
2023-05-16T17:09:13.866Z,16.20
2023-05-16T17:11:42.466Z,16.20
2023-05-16T17:14:11.096Z,16.20
2023-05-16T17:16:38.631Z,16.20
2023-05-16T17:19:05.838Z,16.20
2023-05-16T17:21:34.784Z,16.20
2023-05-16T17:24:02.394Z,16.20
2023-05-16T17:26:30.449Z,16.20
2023-05-16T17:28:58.790Z,16.30
2023-05-16T17:31:25.936Z,16.20
2023-05-16T17:33:53.402Z,16.20
2023-05-16T17:36:20.873Z,16.30
2023-05-16T17:38:48.878Z,16.30
2023-05-16T17:41:16.874Z,16.30
2023-05-16T17:43:45.624Z,16.30
2023-05-16T17:46:12.885Z,16.30
2023-05-16T17:48:39.874Z,16.30
2023-05-16T17:51:07.276Z,16.30
2023-05-16T17:53:34.541Z,16.40
2023-05-16T17:56:01.591Z,16.40
2023-05-16T17:58:28.898Z,16.30
2023-05-16T18:00:56.450Z,16.30
2023-05-16T18:03:23.540Z,16.30
2023-05-16T18:05:51.397Z,16.30
2023-05-16T18:08:18.423Z,16.30
2023-05-16T18:10:52.205Z,16.30
2023-05-16T18:13:20.626Z,16.30
2023-05-16T18:15:47.894Z,16.30
2023-05-16T18:18:14.923Z,16.30
2023-05-16T18:20:42.979Z,16.30
2023-05-16T18:23:12.710Z,16.30
2023-05-16T18:25:39.736Z,16.30
2023-05-16T18:28:08.006Z,16.30
2023-05-16T18:30:37.789Z,16.20
2023-05-16T18:33:06.727Z,16.20
2023-05-16T18:35:33.859Z,16.30
2023-05-16T18:38:01.345Z,16.30
2023-05-16T18:40:28.564Z,16.30
2023-05-16T18:42:56.681Z,16.20
2023-05-16T18:45:27.545Z,16.30
2023-05-16T18:47:54.699Z,16.20
2023-05-16T18:50:22.010Z,16.20
2023-05-16T18:52:49.653Z,16.20
2023-05-16T18:55:16.602Z,16.30
2023-05-16T18:57:45.385Z,16.20
2023-05-16T19:00:13.633Z,16.20
2023-05-16T19:02:42.905Z,16.20
2023-05-16T19:05:10.932Z,16.30
2023-05-16T19:07:38.203Z,16.30
2023-05-16T19:10:06.176Z,16.30
2023-05-16T19:12:33.886Z,16.30
2023-05-16T19:15:01.062Z,16.30
2023-05-16T19:17:28.142Z,16.30
2023-05-16T19:19:55.308Z,16.30
2023-05-16T19:22:22.853Z,16.20
2023-05-16T19:24:50.045Z,16.20
2023-05-16T19:27:17.203Z,16.20
2023-05-16T19:29:44.691Z,16.20
2023-05-16T19:32:12.007Z,16.20
2023-05-16T19:34:39.025Z,16.20
2023-05-16T19:37:06.293Z,16.30
2023-05-16T19:39:33.383Z,16.20
2023-05-16T19:42:07.089Z,16.20
2023-05-16T19:44:35.108Z,16.20
2023-05-16T19:47:02.076Z,16.20
2023-05-16T19:49:31.945Z,16.20
2023-05-16T19:51:59.027Z,16.20
2023-05-16T19:54:25.915Z,16.20
2023-05-16T19:56:52.886Z,16.20
2023-05-16T19:59:20.650Z,16.20
2023-05-16T20:01:47.563Z,16.20
2023-05-16T20:04:14.718Z,16.20
2023-05-16T20:06:41.765Z,16.20
2023-05-16T20:09:08.850Z,16.20
2023-05-16T20:11:35.878Z,16.20
2023-05-16T20:14:02.819Z,16.20
2023-05-16T20:16:29.999Z,16.20
2023-05-16T20:18:57.302Z,16.20
2023-05-16T20:21:24.276Z,16.20
2023-05-16T20:23:51.162Z,16.20
2023-05-16T20:26:18.159Z,16.20
2023-05-16T20:28:45.247Z,16.20
2023-05-16T20:31:12.318Z,16.20
2023-05-16T20:33:39.389Z,16.30
2023-05-16T20:36:06.452Z,16.30
2023-05-16T20:38:33.327Z,16.30
2023-05-16T20:41:00.694Z,16.30
2023-05-16T20:43:27.591Z,16.30
2023-05-16T20:45:54.524Z,16.30
2023-05-16T20:48:21.825Z,16.30
2023-05-16T20:50:48.810Z,16.30
2023-05-16T20:53:15.740Z,16.30
2023-05-16T20:55:42.639Z,16.30
2023-05-16T20:58:09.594Z,16.40
2023-05-16T21:00:36.525Z,16.40
2023-05-16T21:03:03.582Z,16.40
2023-05-16T21:05:31.209Z,16.40
2023-05-16T21:07:58.132Z,16.40
2023-05-16T21:10:25.403Z,16.40
2023-05-16T21:12:52.313Z,16.40
2023-05-16T21:15:24.993Z,16.40
2023-05-16T21:17:52.075Z,16.40
2023-05-16T21:20:19.209Z,16.40
2023-05-16T21:22:46.124Z,16.40
2023-05-16T21:25:13.015Z,16.40
2023-05-16T21:27:40.077Z,16.40
2023-05-16T21:30:07.542Z,16.40
2023-05-16T21:32:34.534Z,16.40
2023-05-16T21:35:01.504Z,16.40
2023-05-16T21:37:28.393Z,16.40
2023-05-16T21:39:55.449Z,16.50
2023-05-16T21:42:22.363Z,16.50
2023-05-16T21:44:49.314Z,16.40
2023-05-16T21:47:16.282Z,16.40
2023-05-16T21:49:43.226Z,16.40
2023-05-16T21:52:10.322Z,16.40
2023-05-16T21:54:37.579Z,16.40
2023-05-16T21:57:04.720Z,16.40
2023-05-16T21:59:31.739Z,16.40
2023-05-16T22:01:58.657Z,16.40
2023-05-16T22:04:25.729Z,16.40
2023-05-16T22:06:52.891Z,16.40
2023-05-16T22:09:19.799Z,16.40
2023-05-16T22:11:46.721Z,16.40
2023-05-16T22:14:13.685Z,16.40
2023-05-16T22:16:40.622Z,16.30
2023-05-16T22:19:08.967Z,16.30
2023-05-16T22:21:36.192Z,16.30
2023-05-16T22:24:03.410Z,16.30
2023-05-16T22:26:30.394Z,16.30
2023-05-16T22:28:57.340Z,16.30
2023-05-16T22:31:24.227Z,16.20
2023-05-16T22:33:51.169Z,16.20
2023-05-16T22:36:18.160Z,16.10
2023-05-16T22:38:45.132Z,16.10
2023-05-16T22:41:12.073Z,16.10
2023-05-16T22:43:39.647Z,16.10
2023-05-16T22:46:06.587Z,16.10
2023-05-16T22:48:33.743Z,16.00
2023-05-16T22:51:02.137Z,16.00
2023-05-16T22:53:29.339Z,16.00
2023-05-16T22:55:56.293Z,15.90
2023-05-16T22:58:23.262Z,15.90
2023-05-16T23:00:50.357Z,15.90
2023-05-16T23:03:17.416Z,15.90
2023-05-16T23:05:44.390Z,15.90
2023-05-16T23:08:11.544Z,15.80
2023-05-16T23:10:38.521Z,15.80
2023-05-16T23:13:05.708Z,15.80
2023-05-16T23:15:32.643Z,15.70
2023-05-16T23:17:59.566Z,15.60
2023-05-16T23:20:26.520Z,15.60
2023-05-16T23:22:53.405Z,15.60
2023-05-16T23:25:20.406Z,15.50
2023-05-16T23:27:47.341Z,15.50
2023-05-16T23:30:14.631Z,15.50
2023-05-16T23:32:41.744Z,15.40
2023-05-16T23:35:08.914Z,15.40
2023-05-16T23:37:36.278Z,15.30
2023-05-16T23:40:03.558Z,15.30
2023-05-16T23:42:30.629Z,15.30
2023-05-16T23:44:57.561Z,15.30
2023-05-16T23:47:24.552Z,15.30
2023-05-16T23:49:51.478Z,15.30
2023-05-16T23:52:18.394Z,15.30
2023-05-16T23:54:45.643Z,15.30
2023-05-16T23:57:12.552Z,15.30
2023-05-16T23:59:40.993Z,15.20
